Time;durP1;ratioP1;P1;durP2;ratioP2;P2;SDS_P1;SDS_P2;PMS_P1;PMS_P2;Temp;Humidity;BMP_temperature;BMP_pressure;BME280_temperature;BME280_humidity;BME280_pressure;Samples;Min_cycle;Max_cycle;Signal;HPM_P1;HPM_P2
2022/05/09 00:02:08;;;;;;;14.50;6.40;;;;;;;10.98;61.90;99967.36;106528;1271;25316;-79
2022/05/09 00:04:38;;;;;;;13.00;5.90;;;;;;;10.91;61.91;99972.53;106343;1271;24263;-80
2022/05/09 00:07:25;;;;;;;13.10;6.10;;;;;;;10.87;61.88;99973.33;106357;1271;22596;-81
2022/05/09 00:10:14;;;;;;;12.80;6.20;;;;;;;10.85;62.00;99976.84;106285;1271;24300;-80
2022/05/09 00:13:00;;;;;;;15.70;7.40;;;;;;;10.82;62.22;99978.59;106414;1271;25256;-79
2022/05/09 00:15:27;;;;;;;15.60;7.10;;;;;;;10.79;62.31;99982.17;106508;1265;25356;-79
2022/05/09 00:18:13;;;;;;;12.60;6.40;;;;;;;10.73;62.23;99981.27;106776;1260;22525;-84
2022/05/09 00:21:00;;;;;;;12.20;6.70;;;;;;;10.68;62.06;99984.23;107137;1263;24355;-81
2022/05/09 00:26:48;;;;;;;15.10;6.60;;;;;;;10.57;62.31;99985.79;107009;1260;24349;-86
2022/05/09 00:32:47;;;;;;;11.90;5.80;;;;;;;10.66;62.62;99992.52;106618;1269;22558;-86
2022/05/09 00:35:44;;;;;;;;;;;;;;;;;;;;;
2022/05/09 00:38:17;;;;;;;14.50;6.80;;;;;;;10.80;62.68;99996.34;106568;1268;22626;-83
2022/05/09 00:41:28;;;;;;;11.90;6.00;;;;;;;10.83;62.60;99999.92;107040;1262;25225;-78
2022/05/09 00:43:34;;;;;;;13.60;6.30;;;;;;;10.84;62.64;100000.05;107112;1262;25299;-79
2022/05/09 00:46:06;;;;;;;12.60;6.50;;;;;;;10.82;62.56;100001.20;107127;1262;22523;-86
2022/05/09 00:48:33;;;;;;;12.60;6.20;;;;;;;10.82;62.64;99999.10;107121;1261;23426;-83
2022/05/09 00:51:06;;;;;;;13.00;6.40;;;;;;;10.80;62.67;100001.90;107102;1258;25246;-78
2022/05/09 00:53:35;;;;;;;12.50;5.70;;;;;;;10.77;62.66;100003.69;107184;1258;22564;-86
2022/05/09 00:56:31;;;;;;;12.50;5.40;;;;;;;10.78;62.73;99999.85;107142;1260;25059;-84
2022/05/09 00:59:03;;;;;;;12.20;6.30;;;;;;;10.89;62.73;100002.48;107056;1261;26659;-80
2022/05/09 01:01:30;;;;;;;16.10;6.10;;;;;;;10.96;62.85;100000.38;107115;1262;22655;-79
2022/05/09 01:04:34;;;;;;;13.00;5.80;;;;;;;11.00;62.85;100001.76;107149;1259;22686;-83
2022/05/09 01:07:11;;;;;;;10.90;5.70;;;;;;;11.02;62.78;99998.66;107083;1259;24242;-78
2022/05/09 01:09:52;;;;;;;14.50;6.40;;;;;;;11.00;62.78;100003.19;107466;1252;23935;-80
2022/05/09 01:12:31;;;;;;;11.80;5.60;;;;;;;11.00;62.65;100006.23;107838;1252;25533;-79
2022/05/09 01:15:01;;;;;;;11.30;4.70;;;;;;;10.99;62.51;100001.29;107851;1252;24219;-81
2022/05/09 01:17:31;;;;;;;12.50;4.30;;;;;;;10.98;62.42;100003.29;107895;1252;22516;-80
2022/05/09 01:20:12;;;;;;;10.30;4.30;;;;;;;11.01;62.24;99998.88;107878;1252;25394;-79
2022/05/09 01:22:48;;;;;;;10.30;4.40;;;;;;;11.04;62.35;100002.23;107808;1255;25251;-79
2022/05/09 01:25:21;;;;;;;10.60;4.60;;;;;;;11.05;62.43;100005.77;107829;1255;22683;-84
2022/05/09 01:28:08;;;;;;;11.60;4.80;;;;;;;11.01;62.57;100002.60;107828;1252;24261;-79
2022/05/09 01:30:52;;;;;;;12.40;5.20;;;;;;;10.94;62.45;100012.32;107828;1252;22525;-87
2022/05/09 01:33:23;;;;;;;12.50;4.70;;;;;;;10.86;62.29;100010.79;108122;1252;22580;-78
2022/05/09 01:35:57;;;;;;;13.60;5.20;;;;;;;10.83;62.44;100010.11;107845;1255;22512;-82
2022/05/09 01:39:10;;;;;;;11.90;4.30;;;;;;;10.78;62.37;100004.85;108165;1252;24289;-83
2022/05/09 01:42:01;;;;;;;12.00;4.50;;;;;;;10.76;62.05;100009.23;107806;1252;22761;-86
2022/05/09 01:44:34;;;;;;;11.80;4.30;;;;;;;10.77;62.18;100007.39;107645;1252;22523;-80
2022/05/09 01:49:52;;;;;;;11.50;4.20;;;;;;;10.77;62.52;100008.48;108111;1252;24351;-80
2022/05/09 01:52:22;;;;;;;14.00;4.70;;;;;;;10.75;62.42;100008.40;107799;1252;22680;-80
2022/05/09 01:54:55;;;;;;;12.80;4.70;;;;;;;10.74;62.40;100011.98;107763;1252;24196;-87
2022/05/09 01:57:26;;;;;;;13.00;5.10;;;;;;;10.72;62.37;100014.63;107919;1255;22528;-82
2022/05/09 01:59:58;;;;;;;13.90;5.20;;;;;;;10.65;62.43;100016.46;107903;1252;22524;-83
2022/05/09 02:02:45;;;;;;;11.40;4.80;;;;;;;10.56;62.46;100018.58;107903;1252;22540;-81
2022/05/09 02:05:34;;;;;;;11.80;4.90;;;;;;;10.45;62.56;100017.92;107793;1255;22677;-83
2022/05/09 02:08:20;;;;;;;9.00;4.50;;;;;;;10.39;62.55;100019.90;108114;1252;22780;-80
2022/05/09 02:11:20;;;;;;;;;;;;;;;;;;;;;
2022/05/09 02:14:15;;;;;;;12.90;4.60;;;;;;;10.32;62.83;100024.73;107913;1252;22675;-81
2022/05/09 02:16:47;;;;;;;13.70;4.40;;;;;;;10.25;62.68;100026.70;107311;1258;25536;-79
2022/05/09 02:19:27;;;;;;;;;;;;;;;;;;;;;
2022/05/09 02:22:00;;;;;;;12.50;5.10;;;;;;;10.12;62.71;100034.39;107306;1258;22528;-84
2022/05/09 02:24:29;;;;;;;13.00;5.00;;;;;;;10.05;62.91;100031.73;107237;1258;25593;-80
2022/05/09 02:27:06;;;;;;;16.80;5.80;;;;;;;9.96;62.56;100029.86;107184;1259;25448;-85
2022/05/09 02:30:04;;;;;;;13.80;4.90;;;;;;;9.87;62.54;100032.66;107090;1259;22527;-85
2022/05/09 02:32:47;;;;;;;14.30;5.40;;;;;;;9.78;62.74;100032.82;107129;1261;22590;-81
2022/05/09 02:35:48;;;;;;;;;;;;;;;;;;;;;
2022/05/09 02:38:28;;;;;;;14.40;4.40;;;;;;;9.63;62.60;100039.67;107125;1261;22518;-80
2022/05/09 02:41:38;;;;;;;11.70;4.50;;;;;;;9.58;62.79;100040.28;107280;1258;22644;-83
2022/05/09 02:44:09;;;;;;;11.90;4.50;;;;;;;9.53;62.52;100040.20;107263;1258;24523;-81
2022/05/09 02:46:40;;;;;;;12.90;4.90;;;;;;;9.46;62.65;100043.01;107296;1258;22660;-81
2022/05/09 02:49:29;;;;;;;12.10;4.90;;;;;;;9.41;62.67;100043.48;107102;1259;24371;-86
2022/05/09 02:51:56;;;;;;;13.30;4.80;;;;;;;9.37;62.72;100050.44;107068;1262;25379;-78
2022/05/09 02:54:23;;;;;;;11.80;4.70;;;;;;;9.32;62.63;100050.34;107673;1252;25223;-79
2022/05/09 02:56:56;;;;;;;12.00;4.90;;;;;;;9.27;62.71;100052.54;107809;1252;25343;-78
2022/05/09 02:59:28;;;;;;;14.00;4.60;;;;;;;9.25;62.78;100056.36;107812;1252;24193;-83
2022/05/09 03:01:57;;;;;;;14.60;4.80;;;;;;;9.25;62.66;100057.79;107809;1255;25528;-79
2022/05/09 03:04:39;;;;;;;12.30;4.10;;;;;;;9.27;62.75;100056.27;107853;1252;22518;-86
2022/05/09 03:07:40;;;;;;;14.70;4.60;;;;;;;9.32;62.79;100058.71;107527;1252;26481;-86
2022/05/09 03:10:24;;;;;;;;;;;;;;;;;;;;;
2022/05/09 03:12:59;;;;;;;13.50;4.20;;;;;;;9.39;62.69;100065.27;107833;1255;24270;-86
2022/05/09 03:16:00;;;;;;;;;;;;;;;;;;;;;
2022/05/09 03:18:26;;;;;;;14.90;5.10;;;;;;;9.33;62.62;100063.80;107860;1252;25230;-79
2022/05/09 03:20:52;;;;;;;13.70;4.90;;;;;;;9.29;62.58;100066.10;108107;1252;25318;-79
2022/05/09 03:23:24;;;;;;;13.20;4.50;;;;;;;9.26;62.59;100073.73;107720;1252;22602;-84
2022/05/09 03:25:50;;;;;;;12.20;4.70;;;;;;;9.25;62.72;100077.34;108095;1251;24278;-81
2022/05/09 03:28:26;;;;;;;12.80;4.70;;;;;;;9.26;62.74;100075.91;108137;1252;25577;-81
2022/05/09 03:31:07;;;;;;;;;;;;;;;;;;;;;
2022/05/09 03:34:08;;;;;;;;;;;;;;;;;;;;;
2022/05/09 03:36:40;;;;;;;9.70;4.00;;;;;;;9.21;62.69;100082.50;107870;1252;22951;-83
2022/05/09 03:39:34;;;;;;;13.10;4.60;;;;;;;9.14;62.72;100079.99;107783;1252;22559;-81
2022/05/09 03:42:36;;;;;;;;;;;;;;;;;;;;;
2022/05/09 03:49:04;;;;;;;12.00;5.00;;;;;;;9.08;62.93;100085.45;107156;1258;24229;-82
2022/05/09 03:55:07;;;;;;;13.40;5.00;;;;;;;9.11;62.92;100088.90;106993;1262;22562;-83
2022/05/09 03:58:32;;;;;;;;;;;;;;;;;;;;;
2022/05/09 04:04:16;;;;;;;13.50;5.20;;;;;;;9.19;62.86;100095.60;107148;1258;24392;-78
2022/05/09 04:07:26;;;;;;;15.30;5.40;;;;;;;9.26;62.99;100095.60;107076;1258;22552;-84
2022/05/09 04:09:58;;;;;;;69.30;23.40;;;;;;;9.37;62.91;100093.09;107089;1260;22611;-83
2022/05/09 04:12:48;;;;;;;56.70;19.60;;;;;;;9.44;62.76;100096.30;107069;1258;22632;-79
2022/05/09 04:18:48;;;;;;;42.80;14.00;;;;;;;9.67;62.67;100093.83;107136;1258;24153;-79
2022/05/09 04:21:36;;;;;;;43.10;14.00;;;;;;;9.73;62.89;100093.02;107170;1257;25470;-78
2022/05/09 04:24:24;;;;;;;50.60;18.30;;;;;;;9.78;62.95;100093.30;107166;1258;23033;-84
2022/05/09 04:27:10;;;;;;;40.90;14.00;;;;;;;9.83;62.85;100097.11;108090;1252;22827;-85
2022/05/09 04:29:49;;;;;;;41.60;15.30;;;;;;;9.89;62.93;100097.52;107837;1252;22567;-85
2022/05/09 04:32:25;;;;;;;45.50;16.20;;;;;;;9.96;63.20;100095.52;107812;1252;24219;-84
2022/05/09 04:35:32;;;;;;;35.80;13.00;;;;;;;10.08;63.09;100097.55;108114;1251;25226;-79
2022/05/09 04:38:02;;;;;;;21.30;8.50;;;;;;;10.25;63.06;100101.84;108129;1252;22607;-85
2022/05/09 04:40:42;;;;;;;17.00;6.70;;;;;;;10.38;63.11;100106.83;107937;1252;22523;-84
2022/05/09 04:43:30;;;;;;;23.90;6.30;;;;;;;10.54;63.12;100111.30;108156;1252;22540;-78
2022/05/09 04:46:06;;;;;;;20.00;5.60;;;;;;;10.72;62.62;100107.44;107796;1252;25390;-79
2022/05/09 04:48:34;;;;;;;15.20;5.30;;;;;;;10.94;62.31;100111.70;107947;1252;24129;-80
2022/05/09 04:51:01;;;;;;;16.00;5.30;;;;;;;11.10;62.11;100110.23;107773;1255;22527;-81
2022/05/09 04:53:30;;;;;;;12.10;4.80;;;;;;;11.27;62.03;100111.79;108057;1252;25514;-77
2022/05/09 04:55:59;;;;;;;12.30;5.20;;;;;;;11.42;62.17;100113.76;107864;1252;22583;-84
2022/05/09 04:58:36;;;;;;;12.60;4.90;;;;;;;11.56;61.96;100110.74;107903;1254;23109;-79
2022/05/09 05:01:02;;;;;;;15.00;5.00;;;;;;;11.80;61.66;100111.13;108127;1252;22533;-84
2022/05/09 05:03:28;;;;;;;13.00;4.90;;;;;;;11.99;61.37;100107.63;107655;1255;25408;-78
2022/05/09 05:05:57;;;;;;;15.00;5.00;;;;;;;12.04;61.16;100107.52;107699;1255;23098;-82
2022/05/09 05:08:27;;;;;;;14.10;5.20;;;;;;;12.08;61.42;100108.89;107839;1254;22583;-84
2022/05/09 05:10:55;;;;;;;18.40;5.10;;;;;;;12.14;61.47;100113.34;107906;1254;22672;-79
2022/05/09 05:13:26;;;;;;;16.30;5.70;;;;;;;12.06;61.18;100115.81;107989;1254;24232;-84
2022/05/09 05:15:54;;;;;;;15.30;5.50;;;;;;;12.03;61.21;100115.98;107960;1254;22963;-79
2022/05/09 05:18:32;;;;;;;11.80;5.10;;;;;;;12.10;61.28;100120.20;107494;1254;24418;-80
2022/05/09 05:21:08;;;;;;;12.60;5.20;;;;;;;12.27;61.10;100115.77;107692;1254;22536;-82
2022/05/09 05:23:40;;;;;;;14.00;5.50;;;;;;;12.50;61.29;100110.17;108223;1255;25347;-79
2022/05/09 05:26:06;;;;;;;13.20;5.20;;;;;;;12.77;60.73;100112.20;107953;1253;23891;-83
2022/05/09 05:28:40;;;;;;;15.40;5.60;;;;;;;12.96;60.75;100109.39;108081;1252;24193;-83
2022/05/09 05:31:15;;;;;;;14.90;5.40;;;;;;;13.07;60.43;100107.20;107774;1252;24105;-86
2022/05/09 05:33:45;;;;;;;14.20;5.90;;;;;;;13.19;60.33;100110.39;107862;1252;25493;-80
2022/05/09 05:36:16;;;;;;;16.60;5.30;;;;;;;13.46;60.65;100113.98;107724;1253;22525;-87
2022/05/09 05:38:43;;;;;;;18.40;5.30;;;;;;;13.75;60.67;100111.25;107870;1252;22559;-83
2022/05/09 05:41:09;;;;;;;16.10;5.60;;;;;;;14.07;60.69;100116.60;107830;1254;22529;-83
2022/05/09 05:43:36;;;;;;;16.70;5.80;;;;;;;14.47;60.58;100114.88;107756;1252;22789;-83
2022/05/09 05:46:02;;;;;;;16.70;5.10;;;;;;;14.80;60.29;100114.41;107756;1252;24262;-84
2022/05/09 05:48:28;;;;;;;19.50;5.30;;;;;;;15.17;60.24;100118.73;107882;1252;25459;-80
2022/05/09 05:50:57;;;;;;;17.40;5.40;;;;;;;15.50;59.86;100120.38;107876;1252;23082;-80
2022/05/09 05:53:24;;;;;;;18.10;6.40;;;;;;;15.74;59.73;100119.66;107670;1255;22563;-78
2022/05/09 05:55:50;;;;;;;22.00;6.60;;;;;;;15.97;59.49;100115.16;107729;1255;25326;-82
2022/05/09 05:58:16;;;;;;;15.70;5.60;;;;;;;16.19;59.42;100117.55;107653;1255;24731;-87
2022/05/09 06:00:43;;;;;;;20.80;6.20;;;;;;;16.29;59.45;100119.45;107375;1254;22520;-87
2022/05/09 06:03:09;;;;;;;19.80;5.60;;;;;;;16.40;59.36;100115.54;107693;1255;24203;-82
2022/05/09 06:05:47;;;;;;;22.80;5.30;;;;;;;16.47;59.10;100117.30;107341;1255;24244;-85
2022/05/09 06:08:22;;;;;;;25.10;5.90;;;;;;;16.49;58.88;100115.15;107825;1254;22561;-84
2022/05/09 06:10:51;;;;;;;21.00;5.10;;;;;;;16.53;58.79;100118.48;107707;1252;22543;-84
2022/05/09 06:13:19;;;;;;;24.70;5.70;;;;;;;16.56;58.69;100118.58;107948;1252;22518;-81
2022/05/09 06:15:47;;;;;;;22.90;5.70;;;;;;;16.47;58.60;100121.65;107869;1252;22598;-80
2022/05/09 06:18:15;;;;;;;24.00;5.50;;;;;;;16.37;58.41;100123.13;107874;1252;24218;-85
2022/05/09 06:20:43;;;;;;;19.90;5.70;;;;;;;16.39;58.87;100121.59;107716;1252;25389;-81
2022/05/09 06:23:16;;;;;;;17.40;5.60;;;;;;;16.44;58.93;100117.19;107959;1252;25246;-80
2022/05/09 06:25:44;;;;;;;19.60;5.50;;;;;;;16.50;58.58;100120.69;107938;1254;25222;-80
2022/05/09 06:28:11;;;;;;;13.70;5.10;;;;;;;16.58;59.03;100121.87;107887;1252;24230;-90
2022/05/09 06:30:38;;;;;;;18.10;5.20;;;;;;;16.73;58.86;100125.81;107883;1252;25451;-85
2022/05/09 06:33:09;;;;;;;17.30;5.10;;;;;;;16.83;58.87;100122.92;107946;1252;22859;-85
2022/05/09 06:35:44;;;;;;;19.90;5.10;;;;;;;17.02;58.62;100121.02;107889;1253;24395;-85
2022/05/09 06:38:19;;;;;;;20.60;5.40;;;;;;;17.19;58.59;100122.67;107746;1255;22893;-84
2022/05/09 06:40:46;;;;;;;20.10;5.10;;;;;;;17.35;58.57;100121.84;107812;1255;22590;-87
2022/05/09 06:43:12;;;;;;;13.60;5.40;;;;;;;17.42;58.12;100123.59;107734;1253;25232;-83
2022/05/09 06:45:41;;;;;;;22.20;6.10;;;;;;;17.36;57.83;100123.98;107845;1252;23080;-82
2022/05/09 06:48:08;;;;;;;22.00;6.10;;;;;;;17.37;57.56;100124.18;108127;1251;22711;-86
2022/05/09 06:50:36;;;;;;;20.10;5.90;;;;;;;17.30;57.46;100124.97;107920;1254;24049;-85
2022/05/09 06:53:06;;;;;;;20.30;8.90;;;;;;;17.31;57.60;100127.00;108115;1251;25326;-81
2022/05/09 06:55:33;;;;;;;21.90;8.30;;;;;;;17.54;57.98;100127.80;108133;1251;24383;-85
2022/05/09 06:58:11;;;;;;;24.80;10.20;;;;;;;17.89;58.20;100126.48;107818;1252;25167;-80
2022/05/09 07:00:37;;;;;;;47.00;23.40;;;;;;;18.00;56.61;100131.85;107866;1251;24190;-85
2022/05/09 07:03:08;;;;;;;31.40;13.50;;;;;;;17.80;57.11;100131.04;108127;1252;24265;-81
2022/05/09 07:05:39;;;;;;;45.00;20.50;;;;;;;18.01;57.60;100127.30;107823;1252;25236;-82
2022/05/09 07:08:06;;;;;;;35.10;13.10;;;;;;;18.27;57.69;100125.95;107918;1252;24157;-81
2022/05/09 07:10:32;;;;;;;41.20;14.00;;;;;;;18.45;57.01;100131.16;107875;1253;24284;-85
2022/05/09 07:12:59;;;;;;;37.00;10.80;;;;;;;18.50;57.33;100126.98;107830;1251;22531;-83
2022/05/09 07:15:29;;;;;;;55.60;24.30;;;;;;;18.55;56.88;100128.67;107893;1252;22823;-85
2022/05/09 07:17:58;;;;;;;47.40;22.30;;;;;;;18.53;56.86;100128.30;107864;1253;25281;-80
2022/05/09 07:20:27;;;;;;;25.20;9.30;;;;;;;18.50;56.62;100132.40;107910;1252;22708;-84
2022/05/09 07:22:57;;;;;;;22.40;6.90;;;;;;;18.40;56.02;100135.55;108043;1252;24244;-81
2022/05/09 07:25:24;;;;;;;18.20;6.00;;;;;;;18.27;56.18;100139.77;107846;1252;22941;-83
2022/05/09 07:27:55;;;;;;;20.00;5.50;;;;;;;18.16;56.43;100142.93;108120;1252;22518;-84
2022/05/09 07:30:23;;;;;;;22.50;9.80;;;;;;;18.24;56.30;100139.68;108107;1251;25456;-81
2022/05/09 07:32:53;;;;;;;37.90;14.40;;;;;;;18.23;56.22;100136.91;108168;1251;24880;-81
2022/05/09 07:35:21;;;;;;;19.60;7.70;;;;;;;18.14;55.95;100138.95;107798;1252;24208;-79
2022/05/09 07:37:48;;;;;;;15.50;5.70;;;;;;;18.06;56.16;100138.31;107927;1252;24496;-81
2022/05/09 07:40:20;;;;;;;17.80;6.20;;;;;;;18.03;55.99;100137.86;107948;1252;24193;-84
2022/05/09 07:42:54;;;;;;;23.20;10.30;;;;;;;18.03;56.39;100138.06;107741;1252;25321;-80
2022/05/09 07:45:49;;;;;;;23.70;6.80;;;;;;;18.09;56.40;100135.56;107833;1254;22711;-84
2022/05/09 07:48:16;;;;;;;21.90;6.60;;;;;;;18.27;56.16;100137.23;107410;1252;467327;-81
2022/05/09 07:50:46;;;;;;;37.20;18.70;;;;;;;18.22;55.88;100135.39;107921;1252;22557;-82
2022/05/09 07:53:19;;;;;;;28.00;9.50;;;;;;;18.06;55.93;100135.06;107743;1253;23469;-84
2022/05/09 07:55:50;;;;;;;31.30;13.70;;;;;;;18.25;56.04;100135.10;107757;1253;25346;-80
2022/05/09 07:58:22;;;;;;;53.50;26.60;;;;;;;18.40;56.06;100137.55;107989;1252;25324;-79
2022/05/09 08:00:49;;;;;;;24.40;6.40;;;;;;;18.58;55.35;100132.20;107841;1252;22679;-86
2022/05/09 08:03:57;;;;;;;27.60;8.10;;;;;;;18.48;55.16;100136.88;107914;1252;23485;-87
2022/05/09 08:06:31;;;;;;;17.30;5.40;;;;;;;18.59;55.71;100137.73;107927;1252;23920;-83
2022/05/09 08:08:58;;;;;;;18.20;5.80;;;;;;;18.72;55.45;100140.36;107943;1252;24288;-83
2022/05/09 08:11:27;;;;;;;15.70;5.60;;;;;;;18.87;55.95;100141.38;107968;1252;22776;-86
2022/05/09 08:13:57;;;;;;;17.00;6.00;;;;;;;19.24;55.63;100140.30;108104;1251;22598;-82
2022/05/09 08:16:29;;;;;;;18.50;5.80;;;;;;;19.23;54.30;100142.44;107788;1252;22551;-80
2022/05/09 08:18:58;;;;;;;15.40;5.40;;;;;;;19.05;55.02;100140.27;107744;1254;25341;-85
2022/05/09 08:21:28;;;;;;;18.50;5.80;;;;;;;19.24;55.42;100140.73;107572;1255;22676;-87
2022/05/09 08:23:55;;;;;;;14.20;5.90;;;;;;;19.42;55.34;100142.85;107808;1252;24262;-86
2022/05/09 08:26:21;;;;;;;22.00;6.20;;;;;;;19.53;55.21;100142.07;107893;1252;24346;-82
2022/05/09 08:28:49;;;;;;;14.50;5.80;;;;;;;19.62;55.11;100141.41;108199;1251;25341;-82
2022/05/09 08:31:18;;;;;;;15.20;5.40;;;;;;;19.76;55.29;100143.04;107892;1251;22796;-81
2022/05/09 08:33:46;;;;;;;13.40;5.50;;;;;;;19.98;55.18;100139.63;107919;1252;22631;-83
2022/05/09 08:36:45;;;;;;;14.40;5.30;;;;;;;20.23;55.48;100139.85;108039;1252;22747;-85
2022/05/09 08:39:00;;;;;;;13.10;5.80;;;;;;;20.52;55.14;100141.40;107684;1252;22526;-87
2022/05/09 08:41:47;;;;;;;14.30;5.90;;;;;;;20.67;54.82;100134.77;107861;1251;25360;-82
2022/05/09 08:44:31;;;;;;;15.10;5.40;;;;;;;20.62;54.28;100134.10;107782;1252;25279;-83
2022/05/09 08:47:30;;;;;;;15.40;5.50;;;;;;;20.68;54.46;100136.44;108280;1251;25220;-88
2022/05/09 08:50:39;;;;;;;17.30;5.70;;;;;;;20.72;54.05;100139.13;107369;1258;26533;-83
2022/05/09 08:53:10;;;;;;;15.40;5.10;;;;;;;20.48;54.26;100145.75;107321;1258;24349;-85
2022/05/09 08:55:45;;;;;;;14.50;5.20;;;;;;;20.51;53.92;100146.20;107232;1259;24390;-85
2022/05/09 08:58:22;;;;;;;14.20;5.20;;;;;;;20.47;54.35;100145.30;107182;1258;22528;-85
2022/05/09 09:00:50;;;;;;;16.40;5.20;;;;;;;20.63;54.58;100143.80;107384;1258;25215;-82
2022/05/09 09:03:35;;;;;;;12.50;5.00;;;;;;;20.90;54.69;100142.05;107390;1259;24296;-86
2022/05/09 09:06:18;;;;;;;15.40;5.20;;;;;;;21.09;54.48;100142.55;107288;1258;22532;-84
2022/05/09 09:09:32;;;;;;;16.60;5.60;;;;;;;21.13;53.17;100142.30;107408;1258;25399;-82
2022/05/09 09:12:01;;;;;;;20.20;6.30;;;;;;;20.90;53.58;100147.28;106805;1265;22544;-83
2022/05/09 09:14:46;;;;;;;20.40;5.70;;;;;;;21.06;53.89;100150.30;106819;1265;22537;-82
2022/05/09 09:17:48;;;;;;;18.50;5.80;;;;;;;21.06;53.26;100148.93;106762;1265;24208;-89
2022/05/09 09:20:53;;;;;;;17.00;7.90;;;;;;;20.98;53.36;100149.58;106785;1265;22656;-84
2022/05/09 09:23:42;;;;;;;17.10;5.40;;;;;;;21.04;53.28;100153.62;106729;1265;22698;-87
2022/05/09 09:26:14;;;;;;;15.30;5.60;;;;;;;21.11;53.72;100152.99;106986;1260;23925;-88
2022/05/09 09:28:52;;;;;;;15.70;4.80;;;;;;;21.30;53.67;100156.06;107210;1260;23407;-83
2022/05/09 09:31:36;;;;;;;14.00;4.80;;;;;;;21.48;53.63;100153.34;106998;1260;22720;-81
2022/05/09 09:34:30;;;;;;;16.30;5.30;;;;;;;21.58;53.20;100153.55;107232;1260;22519;-85
2022/05/09 09:37:21;;;;;;;14.40;4.80;;;;;;;21.65;53.41;100152.50;107252;1260;22527;-82
2022/05/09 09:39:48;;;;;;;21.40;5.60;;;;;;;21.66;52.26;100153.53;107058;1261;26607;-83
2022/05/09 09:42:14;;;;;;;13.90;4.80;;;;;;;21.53;52.85;100149.23;107100;1260;25373;-81
2022/05/09 09:44:45;;;;;;;15.80;5.10;;;;;;;21.67;52.95;100151.02;107246;1260;24364;-83
2022/05/09 09:47:21;;;;;;;15.50;5.50;;;;;;;21.49;52.23;100147.06;107848;1252;25392;-81
2022/05/09 09:50:11;;;;;;;15.20;5.40;;;;;;;21.35;52.00;100143.42;107962;1253;22539;-82
2022/05/09 09:52:58;;;;;;;14.00;4.90;;;;;;;21.24;52.32;100145.69;107821;1254;22672;-90
2022/05/09 09:55:39;;;;;;;14.70;5.10;;;;;;;21.25;52.95;100145.23;108036;1252;25360;-82
2022/05/09 09:58:27;;;;;;;18.60;5.30;;;;;;;21.56;52.49;100143.30;108302;1252;24659;-85
2022/05/09 10:01:32;;;;;;;15.10;4.80;;;;;;;21.59;52.43;100139.70;107966;1252;24433;-85
2022/05/09 10:04:11;;;;;;;15.00;4.30;;;;;;;21.90;53.01;100136.02;108107;1252;25443;-81
2022/05/09 10:07:08;;;;;;;12.70;4.60;;;;;;;22.32;53.16;100136.79;107896;1252;22554;-86
2022/05/09 10:10:00;;;;;;;11.40;4.50;;;;;;;22.71;52.21;100132.67;107919;1254;22661;-87
2022/05/09 10:12:31;;;;;;;15.60;4.80;;;;;;;22.70;50.67;100136.17;107919;1255;22704;-86
2022/05/09 10:15:01;;;;;;;17.50;5.00;;;;;;;22.28;50.60;100136.09;107947;1254;24135;-83
2022/05/09 10:17:27;;;;;;;11.70;4.60;;;;;;;22.01;50.79;100141.02;107891;1254;23932;-86
2022/05/09 10:19:57;;;;;;;11.90;4.70;;;;;;;21.90;51.05;100138.20;107886;1252;24344;-85
2022/05/09 10:25:30;;;;;;;14.80;4.20;;;;;;;21.49;50.21;100135.48;107827;1252;22657;-80
2022/05/09 10:28:21;;;;;;;13.80;4.10;;;;;;;21.32;50.45;100136.29;107793;1253;22546;-83
2022/05/09 10:30:54;;;;;;;12.60;4.50;;;;;;;21.42;50.95;100132.90;107813;1252;22546;-86
2022/05/09 10:33:41;;;;;;;12.10;3.60;;;;;;;21.56;50.84;100129.52;107993;1252;24277;-85
2022/05/09 10:36:46;;;;;;;14.10;3.80;;;;;;;21.81;50.46;100129.83;107897;1254;22557;-81
2022/05/09 10:39:50;;;;;;;14.30;3.90;;;;;;;21.90;49.72;100127.72;107998;1254;24512;-87
2022/05/09 10:42:34;;;;;;;15.10;4.10;;;;;;;22.02;50.68;100122.98;108094;1253;23863;-89
2022/05/09 10:45:17;;;;;;;11.70;3.30;;;;;;;22.30;50.72;100116.48;107928;1254;22527;-88
2022/05/09 10:47:56;;;;;;;14.60;4.20;;;;;;;22.53;50.19;100109.38;108004;1252;22947;-86
2022/05/09 10:50:41;;;;;;;13.30;3.50;;;;;;;22.62;50.07;100112.89;107913;1252;25474;-80
2022/05/09 10:53:34;;;;;;;15.00;3.70;;;;;;;22.66;50.05;100107.25;108024;1252;22620;-81
2022/05/09 10:56:14;;;;;;;17.30;3.80;;;;;;;22.80;49.57;100108.45;107941;1252;24192;-85
2022/05/09 10:58:58;;;;;;;17.50;3.60;;;;;;;22.68;48.69;100108.32;107973;1252;25349;-79
2022/05/09 11:01:44;;;;;;;9.80;3.40;;;;;;;22.24;47.39;100107.11;107632;1255;22955;-86
2022/05/09 11:04:13;;;;;;;11.80;3.70;;;;;;;21.89;48.75;100107.30;107960;1252;22581;-83
2022/05/09 11:07:12;;;;;;;11.60;3.50;;;;;;;22.15;49.57;100104.94;107879;1253;22467;-83
2022/05/09 11:10:02;;;;;;;11.00;3.20;;;;;;;22.68;49.44;100105.36;108087;1254;22524;-80
2022/05/09 11:13:07;;;;;;;9.50;3.00;;;;;;;22.88;47.86;100105.61;107946;1254;25203;-81
2022/05/09 11:15:40;;;;;;;11.80;3.30;;;;;;;22.75;48.27;100097.16;107807;1252;25567;-84
2022/05/09 11:18:24;;;;;;;9.10;2.70;;;;;;;22.78;48.26;100091.96;108126;1253;25571;-86
2022/05/09 11:20:56;;;;;;;11.40;2.90;;;;;;;23.00;48.35;100091.66;107979;1252;22584;-89
2022/05/09 11:23:37;;;;;;;9.30;2.70;;;;;;;23.25;48.45;100090.78;108379;1254;22544;-81
2022/05/09 11:26:34;;;;;;;12.90;2.70;;;;;;;23.29;47.95;100086.54;108062;1254;22527;-83
2022/05/09 11:29:27;;;;;;;10.90;2.70;;;;;;;23.30;47.05;100090.55;107882;1254;22528;-81
2022/05/09 11:32:12;;;;;;;15.20;3.40;;;;;;;23.17;47.62;100085.92;107938;1252;22892;-86
2022/05/09 11:35:21;;;;;;;;;;;;;;;;;;;;;
2022/05/09 11:38:01;;;;;;;11.80;3.50;;;;;;;23.76;47.17;100086.28;107946;1254;24361;-84
2022/05/09 11:41:05;;;;;;;8.90;2.40;;;;;;;23.13;46.94;100087.64;107950;1252;22521;-84
2022/05/09 11:43:52;;;;;;;10.70;2.40;;;;;;;22.26;45.85;100085.84;107915;1251;22762;-82
2022/05/09 11:46:59;;;;;;;11.70;2.70;;;;;;;21.76;46.98;100082.35;107955;1254;25434;-79
2022/05/09 11:50:04;;;;;;;8.20;2.90;;;;;;;22.17;47.60;100075.59;108001;1254;24304;-88
2022/05/09 11:52:41;;;;;;;10.30;2.70;;;;;;;22.77;47.13;100072.63;107952;1252;24620;-89
2022/05/09 11:55:19;;;;;;;12.60;2.40;;;;;;;23.13;47.16;100074.10;107981;1253;25491;-86
2022/05/09 11:58:01;;;;;;;11.40;2.70;;;;;;;23.48;46.63;100074.10;107980;1252;25294;-83
2022/05/09 12:00:47;;;;;;;27.60;21.40;;;;;;;23.62;46.66;100071.05;107816;1254;22717;-88
2022/05/09 12:04:40;;;;;;;;;;;;;;;;;;;;;
2022/05/09 12:07:46;;;;;;;9.90;3.90;;;;;;;23.70;46.29;100065.83;108042;1252;25249;-81
2022/05/09 12:11:32;;;;;;;12.90;6.20;;;;;;;23.83;46.27;100060.91;107966;1252;25564;-85
2022/05/09 12:14:58;;;;;;;20.00;10.90;;;;;;;23.85;45.63;100059.23;107367;1259;22511;-85
2022/05/09 12:18:07;;;;;;;;;;;;;;;;;;;;;
2022/05/09 12:20:38;;;;;;;16.20;7.40;;;;;;;23.50;45.15;100056.61;106741;1265;24348;-84
2022/05/09 12:23:44;;;;;;;12.80;2.90;;;;;;;23.23;44.78;100056.92;106714;1265;25495;-82
2022/05/09 12:26:37;;;;;;;43.70;24.90;;;;;;;22.71;44.33;100050.44;106750;1265;25611;-81
2022/05/09 12:29:28;;;;;;;34.20;18.10;;;;;;;22.47;45.03;100047.95;106790;1266;22543;-83
2022/05/09 12:32:15;;;;;;;13.00;3.40;;;;;;;22.48;44.66;100048.38;106853;1265;24809;-82
2022/05/09 12:34:55;;;;;;;11.60;3.40;;;;;;;22.60;45.49;100045.05;106656;1265;22766;-85
2022/05/09 12:37:23;;;;;;;7.60;2.10;;;;;;;22.86;45.54;100042.07;106683;1268;22603;-82
2022/05/09 12:40:00;;;;;;;7.90;1.90;;;;;;;23.01;45.06;100042.30;106703;1266;22550;-81
2022/05/09 12:42:46;;;;;;;9.40;2.00;;;;;;;23.01;44.91;100035.95;106571;1265;22553;-89
2022/05/09 12:45:21;;;;;;;30.30;19.90;;;;;;;23.05;44.76;100035.77;106847;1265;25348;-85
2022/05/09 12:47:52;;;;;;;11.60;3.80;;;;;;;23.07;44.81;100032.33;106887;1260;22543;-81
2022/05/09 12:50:29;;;;;;;11.00;2.10;;;;;;;23.10;44.63;100033.30;107374;1254;22740;-83